Time;durP1;ratioP1;P1;durP2;ratioP2;P2;SDS_P1;SDS_P2;PMS_P1;PMS_P2;Temp;Humidity;BMP_temperature;BMP_pressure;BME280_temperature;BME280_humidity;BME280_pressure;Samples;Min_cycle;Max_cycle;Signal;HPM_P1;HPM_P2
2022/05/04 00:00:43;;;;;;;7.68;4.93;;;14.70;59.40;;;;;;5116590;28;20026;-61
2022/05/04 00:03:09;;;;;;;5.72;4.53;;;14.70;59.50;;;;;;5115019;28;20047;-61
2022/05/04 00:05:35;;;;;;;5.05;4.40;;;14.70;59.50;;;;;;5111412;28;20077;-61
2022/05/04 00:08:01;;;;;;;5.25;4.10;;;14.70;59.50;;;;;;5107351;28;20039;-61
2022/05/04 00:10:26;;;;;;;6.47;4.70;;;14.60;59.60;;;;;;5116145;28;20518;-61
2022/05/04 00:12:52;;;;;;;5.28;4.53;;;14.60;59.60;;;;;;5105772;28;20528;-61
2022/05/04 00:15:18;;;;;;;5.15;4.18;;;14.60;59.80;;;;;;5105013;28;20024;-60
2022/05/04 00:17:44;;;;;;;6.97;5.15;;;14.50;59.70;;;;;;5111254;28;20043;-61
2022/05/04 00:20:10;;;;;;;5.60;4.60;;;14.40;59.90;;;;;;5109981;28;20019;-60
2022/05/04 00:22:36;;;;;;;6.10;4.38;;;14.40;60.00;;;;;;5095554;28;20028;-61
2022/05/04 00:25:02;;;;;;;5.85;4.45;;;14.40;60.00;;;;;;5100659;28;20028;-61
2022/05/04 00:27:28;;;;;;;5.95;4.45;;;14.30;60.10;;;;;;5101628;28;20043;-60
2022/05/04 00:29:54;;;;;;;4.93;4.25;;;14.30;60.30;;;;;;5106361;28;20028;-60
2022/05/04 00:32:19;;;;;;;6.78;4.90;;;14.30;60.40;;;;;;5113930;28;20051;-60
2022/05/04 00:34:45;;;;;;;4.65;4.07;;;14.20;60.50;;;;;;5115346;27;20119;-61
2022/05/04 00:37:11;;;;;;;5.45;4.65;;;14.20;60.60;;;;;;5101802;28;20031;-61
2022/05/04 00:39:37;;;;;;;5.78;4.68;;;14.10;60.50;;;;;;5115837;27;20020;-61
2022/05/04 00:42:17;;;;;;;6.22;4.63;;;14.10;60.70;;;;;;5114920;28;20084;-60
2022/05/04 05:19:14;;;;;;;4.38;3.75;;;25.70;45.00;;;;;;5045992;28;20045;-61
2022/05/04 05:21:41;;;;;;;5.38;4.30;;;25.40;45.20;;;;;;5050795;28;20021;-61
2022/05/04 05:24:07;;;;;;;4.90;3.90;;;25.20;45.10;;;;;;5049836;28;20033;-61
2022/05/04 05:26:32;;;;;;;4.95;4.20;;;25.20;44.70;;;;;;5047262;28;20052;-61
2022/05/04 05:28:58;;;;;;;6.13;4.32;;;25.00;44.40;;;;;;5049000;28;20462;-61
2022/05/04 05:31:24;;;;;;;4.30;3.75;;;24.80;44.60;;;;;;5050860;28;20033;-61
2022/05/04 05:33:50;;;;;;;5.50;4.55;;;24.50;44.70;;;;;;5047714;28;20411;-61
2022/05/04 05:36:18;;;;;;;4.45;3.65;;;24.00;45.00;;;;;;5049773;28;20029;-61
2022/05/04 05:38:44;;;;;;;4.97;4.20;;;23.60;45.60;;;;;;5042726;28;20055;-62
2022/05/04 05:41:10;;;;;;;4.45;3.75;;;23.10;46.00;;;;;;5038806;28;20021;-61
2022/05/04 05:43:35;;;;;;;4.00;3.40;;;22.70;46.60;;;;;;5041841;28;20500;-61
2022/05/04 05:46:01;;;;;;;4.97;3.85;;;22.40;47.20;;;;;;5047281;28;20029;-61
2022/05/04 05:48:26;;;;;;;4.60;3.85;;;22.10;47.60;;;;;;5043782;28;20037;-61
2022/05/04 05:50:52;;;;;;;4.72;3.88;;;21.90;48.20;;;;;;5042488;28;20028;-61
2022/05/04 05:53:19;;;;;;;5.22;4.10;;;21.80;48.40;;;;;;5042357;28;20032;-61
2022/05/04 05:55:45;;;;;;;5.50;4.43;;;21.70;48.50;;;;;;5045002;28;20104;-61
2022/05/04 05:58:10;;;;;;;5.25;4.50;;;21.50;48.40;;;;;;5044760;28;20540;-61
2022/05/04 06:00:37;;;;;;;5.68;4.50;;;21.30;48.50;;;;;;5040930;28;20025;-61
2022/05/04 06:03:03;;;;;;;4.78;4.25;;;21.10;48.90;;;;;;5045053;28;20060;-61
2022/05/04 06:05:28;;;;;;;5.65;4.60;;;20.90;49.30;;;;;;5044649;28;20469;-61
2022/05/04 06:07:54;;;;;;;4.18;3.75;;;20.70;49.80;;;;;;5046312;28;20067;-61
2022/05/04 06:10:20;;;;;;;5.00;4.43;;;20.60;50.10;;;;;;5043288;28;20028;-61
2022/05/04 06:12:45;;;;;;;5.18;4.20;;;20.50;50.50;;;;;;5046400;28;20032;-61
2022/05/04 06:15:12;;;;;;;4.80;4.30;;;20.40;50.70;;;;;;5046633;28;20613;-61
2022/05/04 06:17:39;;;;;;;6.22;4.45;;;20.40;50.80;;;;;;5060402;28;20040;-62
2022/05/04 06:20:05;;;;;;;5.43;4.50;;;20.20;50.70;;;;;;5090155;28;20045;-61
2022/05/04 06:22:31;;;;;;;5.22;4.53;;;20.10;50.80;;;;;;5083102;28;20395;-61
2022/05/04 06:24:56;;;;;;;6.68;4.70;;;19.90;50.90;;;;;;5087538;28;20065;-61
2022/05/04 06:27:22;;;;;;;5.72;4.72;;;19.70;51.30;;;;;;5087744;28;20066;-61
2022/05/04 06:35:16;;;;;;;4.75;4.28;;;19.40;52.20;;;;;;5084242;28;20165;-61
2022/05/04 06:37:42;;;;;;;6.22;4.85;;;19.30;52.50;;;;;;5081116;28;20107;-61
2022/05/04 06:40:08;;;;;;;4.70;4.18;;;19.30;52.90;;;;;;5083670;28;20028;-61
2022/05/04 06:42:34;;;;;;;4.80;4.30;;;19.30;53.10;;;;;;5086178;28;20036;-61
2022/05/04 06:45:00;;;;;;;5.43;4.88;;;19.40;53.30;;;;;;5086689;28;20036;-61
2022/05/04 06:47:26;;;;;;;5.18;4.53;;;19.50;53.50;;;;;;5076515;28;20065;-61
2022/05/04 06:49:52;;;;;;;6.53;4.70;;;19.50;53.50;;;;;;5071976;28;20032;-61
2022/05/04 06:52:17;;;;;;;5.57;4.38;;;19.60;53.30;;;;;;5075672;28;20032;-61
2022/05/04 06:54:43;;;;;;;4.43;4.00;;;19.60;53.30;;;;;;5076434;28;20028;-61
2022/05/04 06:57:09;;;;;;;4.97;4.47;;;19.60;53.40;;;;;;5082239;28;20509;-62
2022/05/04 06:59:35;;;;;;;4.85;4.38;;;19.60;53.60;;;;;;5078273;28;20028;-62
2022/05/04 07:02:02;;;;;;;5.72;4.30;;;19.60;53.90;;;;;;5079122;28;20031;-62
2022/05/04 07:04:27;;;;;;;4.70;4.13;;;19.60;54.10;;;;;;5082571;28;20025;-62
2022/05/04 07:06:53;;;;;;;5.45;4.65;;;19.70;54.40;;;;;;5067475;28;20047;-62
2022/05/04 07:09:19;;;;;;;5.15;4.25;;;19.70;54.70;;;;;;5078950;28;20056;-62
2022/05/04 07:11:44;;;;;;;4.78;4.28;;;19.70;55.00;;;;;;5060539;28;20028;-61
2022/05/04 07:14:10;;;;;;;5.43;4.88;;;19.70;55.00;;;;;;5080003;28;20061;-62
2022/05/04 07:16:37;;;;;;;5.10;4.60;;;19.70;55.30;;;;;;5070870;28;20035;-62
2022/05/04 07:19:03;;;;;;;4.55;4.15;;;19.60;55.40;;;;;;5071272;28;21451;-62
2022/05/04 07:21:28;;;;;;;4.28;3.83;;;19.60;55.60;;;;;;5071150;28;20038;-61
2022/05/04 07:23:54;;;;;;;5.18;4.40;;;19.60;55.70;;;;;;5067302;28;20089;-62
2022/05/04 07:26:20;;;;;;;5.93;4.20;;;19.50;55.70;;;;;;5074294;28;20505;-60
2022/05/04 07:28:45;;;;;;;4.78;4.05;;;19.50;56.00;;;;;;5074500;28;20060;-61
2022/05/04 07:31:11;;;;;;;5.32;4.50;;;19.40;56.20;;;;;;5068307;28;20036;-61
2022/05/04 07:33:37;;;;;;;5.25;4.50;;;19.40;56.60;;;;;;5071888;28;20028;-60
2022/05/04 07:36:03;;;;;;;4.95;4.40;;;19.40;56.70;;;;;;5070896;28;20479;-61
2022/05/04 07:38:29;;;;;;;4.80;4.30;;;19.40;57.60;;;;;;5049990;28;20035;-61
2022/05/04 07:43:39;;;;;;;5.15;4.25;;;19.40;57.00;;;;;;5067289;28;20031;-62
2022/05/04 07:46:05;;;;;;;4.60;4.07;;;19.30;56.80;;;;;;5073104;28;20019;-62
2022/05/04 07:48:31;;;;;;;5.05;4.10;;;19.30;56.70;;;;;;5063727;28;20050;-62
2022/05/04 07:50:57;;;;;;;5.07;4.03;;;19.30;56.50;;;;;;5069563;28;20099;-61
2022/05/04 07:53:22;;;;;;;5.20;4.25;;;19.30;56.40;;;;;;5069390;28;20588;-60
2022/05/04 07:55:48;;;;;;;4.30;3.90;;;19.20;56.10;;;;;;5070294;28;20472;-60
2022/05/04 07:58:13;;;;;;;4.35;3.78;;;19.20;56.50;;;;;;5076840;28;20062;-60
2022/05/04 08:06:08;;;;;;;6.95;4.53;;;19.10;56.30;;;;;;5074849;28;20093;-62
2022/05/04 08:08:33;;;;;;;5.03;4.47;;;19.10;56.10;;;;;;5072411;28;20073;-61
2022/05/04 08:10:59;;;;;;;4.28;3.83;;;19.00;55.80;;;;;;5070425;28;20946;-61
2022/05/04 08:13:24;;;;;;;4.80;3.85;;;19.00;55.80;;;;;;5072468;28;20028;-62
2022/05/04 08:15:50;;;;;;;4.50;3.80;;;19.00;55.60;;;;;;5073039;28;20032;-62
2022/05/04 08:18:16;;;;;;;7.07;4.25;;;19.00;55.30;;;;;;5073342;28;20044;-62
2022/05/04 08:20:42;;;;;;;3.95;3.55;;;19.00;55.30;;;;;;5073932;28;20038;-62
2022/05/04 08:23:10;;;;;;;4.53;3.80;;;18.90;55.30;;;;;;5068077;28;20786;-62
2022/05/04 08:25:35;;;;;;;5.45;4.03;;;18.90;55.10;;;;;;5072116;28;20024;-60
2022/05/04 08:28:01;;;;;;;4.50;3.85;;;18.90;55.00;;;;;;5074576;28;20035;-61
2022/05/04 08:30:28;;;;;;;3.92;3.42;;;18.90;54.90;;;;;;5067630;28;20055;-62
2022/05/04 08:32:53;;;;;;;4.32;3.92;;;18.90;55.00;;;;;;5061902;28;20744;-61
2022/05/04 08:35:19;;;;;;;5.18;3.97;;;18.90;55.00;;;;;;5067415;28;20030;-61
2022/05/04 08:37:46;;;;;;;4.50;4.10;;;18.80;55.10;;;;;;5068591;28;20103;-61
2022/05/04 08:40:12;;;;;;;4.53;4.00;;;18.80;55.30;;;;;;5074605;28;20028;-59
2022/05/04 08:42:43;;;;;;;4.60;3.70;;;18.80;55.30;;;;;;5069972;28;20032;-61
2022/05/04 08:45:14;;;;;;;4.90;4.03;;;18.90;55.40;;;;;;5076680;28;20038;-59
2022/05/04 08:47:41;;;;;;;4.57;4.13;;;18.90;55.50;;;;;;5071059;28;20396;-61
2022/05/04 08:50:12;;;;;;;4.85;4.07;;;18.80;55.50;;;;;;5073092;28;20576;-60
2022/05/04 08:52:51;;;;;;;5.55;3.97;;;18.90;55.30;;;;;;5063997;28;20090;-61
2022/05/04 08:55:17;;;;;;;4.22;3.65;;;18.80;55.20;;;;;;5071220;28;20032;-61
2022/05/04 08:57:43;;;;;;;5.07;4.18;;;18.80;55.30;;;;;;5061054;28;20121;-61
2022/05/04 09:00:10;;;;;;;4.30;3.75;;;18.80;55.40;;;;;;5061568;28;20035;-62
2022/05/04 09:02:38;;;;;;;4.57;3.72;;;18.80;55.20;;;;;;5053859;28;20376;-60
2022/05/04 09:05:18;;;;;;;4.28;3.63;;;18.80;55.20;;;;;;5074067;28;20055;-61
2022/05/04 09:07:47;;;;;;;3.80;3.17;;;18.80;54.90;;;;;;5067103;28;20043;-61
2022/05/04 09:10:17;;;;;;;3.45;3.15;;;18.80;54.60;;;;;;5054069;28;20079;-61
2022/05/04 09:12:44;;;;;;;5.13;3.13;;;18.80;54.30;;;;;;5072634;28;20027;-61
2022/05/04 09:15:24;;;;;;;3.28;2.97;;;18.80;54.10;;;;;;5073203;28;20115;-60
2022/05/04 09:18:00;;;;;;;3.25;2.95;;;18.80;53.50;;;;;;5060930;28;20182;-63
2022/05/04 09:23:14;;;;;;;2.60;2.40;;;18.90;53.20;;;;;;5068842;28;20089;-62
2022/05/04 09:25:40;;;;;;;2.95;2.72;;;18.80;52.90;;;;;;5069863;28;20024;-62
2022/05/04 09:28:13;;;;;;;3.40;2.65;;;18.80;52.60;;;;;;5063538;28;20505;-62
2022/05/04 09:30:54;;;;;;;3.25;2.85;;;18.80;52.40;;;;;;5058056;28;20035;-61
2022/05/04 09:33:32;;;;;;;4.80;2.53;;;18.80;52.30;;;;;;5065911;28;20031;-62
2022/05/04 09:35:59;;;;;;;2.88;2.58;;;18.80;51.90;;;;;;5061454;28;20074;-61
2022/05/04 09:46:53;;;;;;;3.38;2.88;;;18.80;52.10;;;;;;5068500;28;20039;-60
2022/05/04 09:49:31;;;;;;;3.35;2.70;;;18.80;52.10;;;;;;5065856;28;20024;-61
2022/05/04 09:52:01;;;;;;;3.38;3.08;;;18.80;52.00;;;;;;5067895;28;20085;-61
2022/05/04 09:54:27;;;;;;;3.03;2.72;;;18.80;52.10;;;;;;5072739;28;20072;-61
2022/05/04 09:56:55;;;;;;;3.75;3.13;;;18.80;52.30;;;;;;5065757;28;20110;-62
2022/05/04 09:59:23;;;;;;;3.72;3.35;;;18.80;52.60;;;;;;5069655;28;20047;-62
2022/05/04 10:01:51;;;;;;;3.22;2.92;;;18.80;52.50;;;;;;5068275;28;20554;-62
2022/05/04 10:04:20;;;;;;;3.53;3.20;;;18.80;52.70;;;;;;5068011;28;20048;-61
2022/05/04 10:06:48;;;;;;;3.67;3.30;;;18.80;52.60;;;;;;5073055;28;20157;-61
2022/05/04 10:09:13;;;;;;;3.25;2.90;;;18.80;52.80;;;;;;5068699;28;20303;-61
2022/05/04 10:11:39;;;;;;;2.72;2.53;;;18.80;52.70;;;;;;5075426;28;20035;-61
2022/05/04 10:14:12;;;;;;;2.85;2.50;;;18.80;52.60;;;;;;5074444;28;20444;-61
2022/05/04 10:16:53;;;;;;;3.17;2.70;;;18.80;52.50;;;;;;5075561;28;20020;-61
2022/05/04 10:19:30;;;;;;;3.17;2.80;;;18.80;52.40;;;;;;5060199;28;20048;-60
2022/05/04 10:21:59;;;;;;;4.78;2.80;;;18.80;52.50;;;;;;5070458;28;20478;-61
2022/05/04 10:24:29;;;;;;;3.67;2.88;;;18.80;52.50;;;;;;5072647;28;20032;-61
2022/05/04 10:27:15;;;;;;;3.10;2.80;;;18.70;52.40;;;;;;5054090;28;20028;-61
2022/05/04 10:32:28;;;;;;;3.08;2.78;;;18.70;51.90;;;;;;5070825;28;20043;-62
2022/05/04 10:35:27;;;;;;;2.90;2.60;;;18.70;51.70;;;;;;5079025;28;20028;-62
2022/05/04 10:37:58;;;;;;;3.65;2.40;;;18.70;51.70;;;;;;5076007;28;20044;-61
2022/05/04 10:40:27;;;;;;;2.95;2.55;;;18.70;52.10;;;;;;5076131;28;20020;-61
2022/05/04 10:42:57;;;;;;;2.58;2.20;;;18.70;52.10;;;;;;5065879;28;20460;-61
2022/05/04 10:45:43;;;;;;;3.75;2.75;;;18.70;52.20;;;;;;5076177;28;20032;-61
2022/05/04 10:48:18;;;;;;;3.15;2.28;;;18.70;51.90;;;;;;5079005;28;20037;-61
2022/05/04 10:50:52;;;;;;;2.50;2.30;;;18.70;51.90;;;;;;5072595;28;20032;-61
2022/05/04 10:53:22;;;;;;;3.40;2.40;;;18.60;52.00;;;;;;5049616;28;20204;-62
2022/05/04 10:56:00;;;;;;;6.13;2.30;;;18.70;51.90;;;;;;5074184;28;20780;-62
2022/05/04 10:58:36;;;;;;;2.38;2.10;;;18.70;51.70;;;;;;5081141;28;20029;-60
2022/05/04 11:01:23;;;;;;;2.22;2.00;;;18.70;51.70;;;;;;5075591;28;20437;-60
2022/05/04 11:04:09;;;;;;;2.50;2.10;;;18.70;51.90;;;;;;5061779;28;20550;-60
2022/05/04 11:06:51;;;;;;;2.35;2.15;;;18.70;51.70;;;;;;5074472;28;20642;-61
2022/05/04 11:09:18;;;;;;;2.70;2.45;;;18.70;51.50;;;;;;5079216;28;20677;-62
2022/05/04 11:11:46;;;;;;;2.28;2.08;;;18.60;51.50;;;;;;5078788;28;20028;-62
2022/05/04 11:14:14;;;;;;;2.53;2.33;;;18.60;51.40;;;;;;5074631;28;21635;-62
2022/05/04 11:16:42;;;;;;;2.47;2.17;;;18.60;51.50;;;;;;5079503;28;20039;-62
2022/05/04 11:19:11;;;;;;;3.05;2.35;;;18.60;51.50;;;;;;5075533;28;20066;-60
2022/05/04 11:21:37;;;;;;;2.67;2.42;;;18.60;51.40;;;;;;5071877;28;20059;-62
2022/05/04 11:24:06;;;;;;;2.20;1.95;;;18.60;51.60;;;;;;5074437;28;21233;-61
2022/05/04 11:26:46;;;;;;;2.08;1.98;;;18.60;52.30;;;;;;5074068;28;20037;-62
2022/05/04 11:29:29;;;;;;;2.10;2.00;;;18.60;51.60;;;;;;5076322;28;20032;-62
2022/05/04 11:31:57;;;;;;;2.47;2.28;;;18.60;51.10;;;;;;5066596;28;20036;-60
2022/05/04 11:34:35;;;;;;;2.28;2.05;;;18.60;51.00;;;;;;5082038;28;20550;-61
2022/05/04 11:37:11;;;;;;;2.22;2.00;;;18.60;51.00;;;;;;5079714;28;20028;-62
2022/05/04 11:39:38;;;;;;;2.20;2.00;;;18.60;51.00;;;;;;5077180;28;20640;-61
2022/05/04 11:42:07;;;;;;;2.10;1.92;;;18.60;51.10;;;;;;5079705;28;20075;-60
2022/05/04 11:44:34;;;;;;;2.17;1.98;;;18.70;51.20;;;;;;5072449;28;20054;-61
2022/05/04 11:47:01;;;;;;;2.90;2.13;;;18.70;51.40;;;;;;5068696;28;20067;-61
2022/05/04 11:49:31;;;;;;;1.90;1.80;;;18.70;51.40;;;;;;5074184;28;20029;-62
2022/05/04 11:51:58;;;;;;;2.00;1.73;;;18.70;51.70;;;;;;5051395;28;20693;-62
2022/05/04 11:54:24;;;;;;;2.00;1.83;;;18.70;51.80;;;;;;5076899;28;20695;-61
2022/05/04 11:56:50;;;;;;;2.25;1.95;;;18.60;51.90;;;;;;5069111;28;20356;-62
2022/05/04 11:59:16;;;;;;;4.47;2.17;;;18.70;52.20;;;;;;5050104;28;20084;-62
2022/05/04 12:01:42;;;;;;;3.50;2.30;;;18.60;52.20;;;;;;5066356;28;20024;-63
2022/05/04 12:04:10;;;;;;;2.33;2.05;;;18.60;52.20;;;;;;5065852;28;20047;-62
2022/05/04 12:06:37;;;;;;;2.42;2.22;;;18.60;52.70;;;;;;5072421;28;20065;-59
2022/05/04 12:09:03;;;;;;;2.45;2.20;;;18.60;52.60;;;;;;5068752;28;20601;-62
2022/05/04 12:11:30;;;;;;;3.13;2.08;;;18.60;52.80;;;;;;5070973;28;20040;-63
2022/05/04 12:13:56;;;;;;;2.20;2.00;;;18.60;52.50;;;;;;5073149;28;20031;-61
2022/05/04 12:16:23;;;;;;;2.10;1.90;;;18.50;52.30;;;;;;5066889;28;20044;-61
2022/05/04 12:18:49;;;;;;;3.55;2.20;;;18.50;52.20;;;;;;5074024;28;20468;-62
2022/05/04 12:21:22;;;;;;;2.38;2.17;;;18.50;51.90;;;;;;5080657;28;20024;-61
2022/05/04 12:23:53;;;;;;;2.20;2.00;;;18.60;51.80;;;;;;5071038;28;20506;-62
2022/05/04 12:26:19;;;;;;;1.90;1.80;;;18.60;51.70;;;;;;5071276;28;20487;-62
2022/05/04 12:34:18;;;;;;;1.98;1.80;;;18.60;52.00;;;;;;5075426;28;20630;-61
2022/05/04 12:36:45;;;;;;;1.75;1.65;;;18.60;51.80;;;;;;5070425;28;20081;-61
2022/05/04 12:39:11;;;;;;;2.78;2.13;;;18.60;51.80;;;;;;5070468;28;20028;-61
2022/05/04 12:41:37;;;;;;;2.00;1.83;;;18.60;51.90;;;;;;5070684;28;20024;-61
2022/05/04 12:44:04;;;;;;;2.03;1.90;;;18.60;52.10;;;;;;5080080;28;20395;-62
2022/05/04 12:46:30;;;;;;;2.58;2.15;;;18.60;52.20;;;;;;5073542;28;20056;-60
2022/05/04 12:48:56;;;;;;;2.35;2.10;;;18.60;52.60;;;;;;5074169;28;20173;-61
2022/05/04 12:51:24;;;;;;;2.40;2.20;;;18.50;52.60;;;;;;5075828;28;20035;-61
2022/05/04 12:53:50;;;;;;;2.40;2.20;;;18.50;52.80;;;;;;5074821;28;20940;-60
2022/05/04 12:59:03;;;;;;;3.13;1.90;;;18.50;52.90;;;;;;5072545;28;20074;-60
2022/05/04 13:01:31;;;;;;;2.45;1.98;;;18.50;52.10;;;;;;5075623;28;20082;-61
2022/05/04 13:03:58;;;;;;;1.85;1.73;;;18.50;52.20;;;;;;5072458;28;20499;-61
2022/05/04 13:06:23;;;;;;;2.55;2.10;;;18.50;52.40;;;;;;5079437;28;20039;-61
2022/05/04 13:08:50;;;;;;;2.72;1.90;;;18.50;52.60;;;;;;5074117;28;20047;-61
2022/05/04 13:11:17;;;;;;;1.67;1.58;;;18.50;52.60;;;;;;5074129;28;20035;-60
2022/05/04 13:13:44;;;;;;;1.95;1.75;;;18.50;52.70;;;;;;5079912;28;20032;-61
2022/05/04 13:16:10;;;;;;;1.92;1.80;;;18.40;52.70;;;;;;5068471;28;20212;-60
2022/05/04 13:18:38;;;;;;;2.85;2.30;;;18.50;53.10;;;;;;5067281;28;20425;-60
2022/05/04 13:21:04;;;;;;;4.25;2.10;;;18.50;52.80;;;;;;5076208;28;20510;-59
2022/05/04 13:23:30;;;;;;;2.15;1.92;;;18.60;52.90;;;;;;5077759;28;20942;-62
2022/05/04 13:25:56;;;;;;;2.67;1.98;;;18.60;52.50;;;;;;5083709;28;20088;-61
2022/05/04 13:28:22;;;;;;;3.05;2.08;;;18.60;52.00;;;;;;5077839;28;20031;-62
2022/05/04 13:30:48;;;;;;;2.25;1.98;;;18.60;52.10;;;;;;5078185;28;20467;-63
2022/05/04 13:33:15;;;;;;;2.35;1.98;;;18.60;51.90;;;;;;5077364;28;20126;-62
2022/05/04 13:35:41;;;;;;;3.55;1.90;;;18.60;51.80;;;;;;5075778;28;20032;-62
2022/05/04 13:38:07;;;;;;;1.83;1.73;;;18.70;52.00;;;;;;5056343;28;20023;-61
2022/05/04 13:40:34;;;;;;;2.13;1.70;;;18.70;52.30;;;;;;5075958;28;20044;-63
2022/05/04 13:43:00;;;;;;;1.95;1.85;;;18.60;52.30;;;;;;5070764;28;20043;-62
2022/05/04 13:45:26;;;;;;;2.45;2.00;;;18.60;51.60;;;;;;5069417;28;20103;-62
2022/05/04 13:47:52;;;;;;;2.10;1.90;;;18.60;51.50;;;;;;5064699;28;20111;-61
2022/05/04 13:53:15;;;;;;;2.45;1.65;;;18.60;51.90;;;;;;5073584;28;20145;-63
2022/05/04 13:55:46;;;;;;;2.42;1.65;;;18.60;51.80;;;;;;5073933;28;20085;-62
2022/05/04 13:58:12;;;;;;;2.05;1.80;;;18.60;52.10;;;;;;5072566;28;20020;-62
2022/05/04 14:00:39;;;;;;;3.08;1.75;;;18.60;51.60;;;;;;5075380;28;20457;-62
2022/05/04 14:03:05;;;;;;;2.53;2.00;;;18.50;51.80;;;;;;5071687;28;20048;-62
2022/05/04 14:05:31;;;;;;;1.75;1.60;;;18.50;51.90;;;;;;5047959;28;20496;-62
2022/05/04 14:07:57;;;;;;;1.60;1.50;;;18.50;51.40;;;;;;5078511;28;20039;-60
2022/05/04 14:10:22;;;;;;;1.58;1.48;;;18.50;51.10;;;;;;5076017;28;20032;-61
2022/05/04 14:12:48;;;;;;;2.55;1.85;;;18.50;50.90;;;;;;5072432;28;20024;-62
2022/05/04 14:15:14;;;;;;;2.05;1.67;;;18.50;50.70;;;;;;5074176;28;20035;-63
2022/05/04 14:17:39;;;;;;;1.77;1.67;;;18.40;50.60;;;;;;5067751;28;20134;-62
2022/05/04 14:20:06;;;;;;;1.77;1.63;;;18.40;50.50;;;;;;5073969;28;20028;-63
2022/05/04 14:22:32;;;;;;;1.50;1.40;;;18.30;50.50;;;;;;5076122;28;20819;-63
2022/05/04 14:24:58;;;;;;;2.25;1.42;;;18.30;50.30;;;;;;5063744;28;20032;-63
2022/05/04 14:27:24;;;;;;;1.40;1.35;;;18.20;49.90;;;;;;5073718;28;20444;-63
2022/05/04 14:29:49;;;;;;;1.67;1.50;;;18.10;50.00;;;;;;5072691;28;20116;-62
2022/05/04 14:32:15;;;;;;;1.63;1.50;;;18.10;50.10;;;;;;5071801;28;20067;-62
2022/05/04 14:34:41;;;;;;;2.63;1.95;;;18.10;50.40;;;;;;5072367;28;20047;-61
2022/05/04 14:37:07;;;;;;;1.42;1.25;;;18.00;50.40;;;;;;5076595;28;20036;-63
2022/05/04 14:39:33;;;;;;;1.70;1.60;;;18.00;50.40;;;;;;5076203;28;20024;-62
2022/05/04 14:41:58;;;;;;;1.70;1.52;;;18.00;50.60;;;;;;5079027;28;20028;-62
2022/05/04 14:44:24;;;;;;;1.50;1.40;;;17.90;50.00;;;;;;5080919;28;20407;-62
2022/05/04 14:46:50;;;;;;;1.85;1.75;;;17.90;50.20;;;;;;5083273;28;20028;-63
2022/05/04 14:49:16;;;;;;;2.00;1.90;;;17.90;50.50;;;;;;5082234;28;20047;-61
2022/05/04 14:51:42;;;;;;;2.45;1.90;;;17.90;50.50;;;;;;5077103;28;20659;-62
2022/05/04 14:54:07;;;;;;;1.88;1.77;;;17.90;50.30;;;;;;5080205;28;20020;-63
2022/05/04 14:56:33;;;;;;;1.90;1.70;;;17.90;50.30;;;;;;5078253;28;20039;-62
2022/05/04 14:58:59;;;;;;;2.53;1.70;;;17.80;50.00;;;;;;5076118;28;20032;-62
2022/05/04 15:01:25;;;;;;;1.42;1.42;;;17.90;50.20;;;;;;5076303;28;20510;-62
2022/05/04 15:06:36;;;;;;;1.42;1.20;;;17.80;50.40;;;;;;5073384;28;20031;-61
2022/05/04 15:09:02;;;;;;;1.50;1.40;;;17.70;50.50;;;;;;5073881;28;20032;-62
2022/05/04 15:11:27;;;;;;;1.58;1.48;;;17.70;50.50;;;;;;5078285;28;20028;-61
2022/05/04 15:13:54;;;;;;;1.55;1.45;;;17.70;50.30;;;;;;5072601;28;20036;-61
2022/05/04 15:16:19;;;;;;;1.67;1.58;;;17.70;50.40;;;;;;5037052;28;20023;-61
2022/05/04 15:18:45;;;;;;;1.52;1.40;;;17.70;50.00;;;;;;5077263;28;20040;-61
2022/05/04 15:21:11;;;;;;;3.38;1.55;;;17.70;49.80;;;;;;5078083;28;20032;-61
2022/05/04 15:23:38;;;;;;;1.42;1.33;;;17.60;49.70;;;;;;5080396;28;20063;-61
2022/05/04 15:26:05;;;;;;;1.52;1.42;;;17.60;49.80;;;;;;5081044;28;20060;-62
2022/05/04 15:28:31;;;;;;;1.40;1.30;;;17.60;50.00;;;;;;5088070;28;20089;-61
2022/05/04 15:30:57;;;;;;;2.28;1.70;;;17.50;49.80;;;;;;5086445;28;20020;-61
2022/05/04 15:33:22;;;;;;;1.40;1.30;;;17.50;50.10;;;;;;5082204;28;20036;-61
2022/05/04 15:35:48;;;;;;;2.38;1.48;;;17.50;50.00;;;;;;5083307;28;20031;-61
2022/05/04 15:38:14;;;;;;;1.60;1.40;;;17.50;50.00;;;;;;5085861;28;20028;-61
2022/05/04 15:40:40;;;;;;;1.40;1.30;;;17.50;49.90;;;;;;5083601;28;20042;-62
2022/05/04 15:43:06;;;;;;;1.48;1.35;;;17.50;49.60;;;;;;5083102;28;20037;-62
2022/05/04 15:45:31;;;;;;;1.50;1.40;;;17.40;49.50;;;;;;5081800;28;20032;-62
2022/05/04 15:47:57;;;;;;;1.88;1.27;;;17.40;49.70;;;;;;5081631;28;20024;-62
2022/05/04 15:50:23;;;;;;;1.73;1.52;;;17.40;49.70;;;;;;5083218;28;20023;-62
2022/05/04 15:52:49;;;;;;;2.20;1.80;;;17.40;49.90;;;;;;5080916;28;20077;-62
2022/05/04 15:55:15;;;;;;;1.77;1.67;;;17.40;50.00;;;;;;5087983;28;20089;-62
2022/05/04 15:57:41;;;;;;;1.85;1.73;;;17.40;50.50;;;;;;5078584;28;20158;-62
2022/05/04 16:00:09;;;;;;;1.80;1.58;;;17.40;50.90;;;;;;5084475;28;20027;-62
2022/05/04 16:05:19;;;;;;;2.47;1.45;;;17.30;51.00;;;;;;5085095;28;20054;-61
2022/05/04 16:07:45;;;;;;;1.77;1.65;;;17.30;51.10;;;;;;5084280;28;20035;-62
2022/05/04 16:10:11;;;;;;;1.38;1.27;;;17.20;51.20;;;;;;5070312;28;20032;-62
2022/05/04 16:12:38;;;;;;;1.95;1.73;;;17.20;50.80;;;;;;5085125;28;20050;-61
2022/05/04 16:15:04;;;;;;;1.27;1.17;;;17.20;50.90;;;;;;5068618;28;20023;-62
2022/05/04 16:22:59;;;;;;;1.83;1.60;;;17.10;51.00;;;;;;5086196;28;20030;-62
2022/05/04 16:25:25;;;;;;;2.28;1.50;;;17.10;51.20;;;;;;5082402;28;20555;-62
2022/05/04 16:27:51;;;;;;;1.77;1.42;;;17.00;51.20;;;;;;5087725;28;20028;-62
2022/05/04 16:30:16;;;;;;;2.05;1.50;;;17.00;51.20;;;;;;5087188;28;20024;-62
2022/05/04 16:32:42;;;;;;;1.23;1.08;;;17.00;51.30;;;;;;5083864;28;20040;-62
2022/05/04 16:35:08;;;;;;;1.67;1.45;;;17.00;51.30;;;;;;5085897;28;20028;-62
2022/05/04 16:37:34;;;;;;;1.42;1.33;;;16.90;51.00;;;;;;5088571;28;20047;-62
2022/05/04 16:39:59;;;;;;;1.35;1.25;;;16.90;50.80;;;;;;5090253;28;20032;-62
2022/05/04 16:42:25;;;;;;;1.58;1.40;;;16.90;50.50;;;;;;5087403;28;20028;-62
2022/05/04 16:44:51;;;;;;;2.17;1.60;;;16.80;50.30;;;;;;5082595;28;20024;-62
2022/05/04 16:47:17;;;;;;;1.67;1.58;;;16.80;50.00;;;;;;5087101;28;20055;-62
2022/05/04 16:49:43;;;;;;;1.55;1.35;;;16.80;49.90;;;;;;5080053;28;20024;-62
2022/05/04 16:52:09;;;;;;;1.80;1.50;;;16.80;50.00;;;;;;5083963;28;20081;-62
2022/05/04 16:54:35;;;;;;;1.60;1.50;;;16.80;49.70;;;;;;5084803;28;20139;-61
2022/05/04 16:57:01;;;;;;;1.77;1.65;;;16.70;50.00;;;;;;5084086;28;20107;-62
2022/05/04 16:59:26;;;;;;;1.45;1.35;;;16.70;50.40;;;;;;5082880;28;20111;-61
2022/05/04 17:01:52;;;;;;;1.67;1.55;;;16.60;50.20;;;;;;5082857;28;20027;-62
2022/05/04 17:04:18;;;;;;;1.92;1.73;;;16.60;50.40;;;;;;5083771;28;20132;-62
2022/05/04 17:06:45;;;;;;;1.40;1.30;;;16.60;50.90;;;;;;5086568;28;20047;-61
2022/05/04 17:09:11;;;;;;;1.70;1.60;;;16.60;50.80;;;;;;5085761;28;20028;-61
2022/05/04 17:11:37;;;;;;;2.17;1.63;;;16.50;50.30;;;;;;5082461;28;20020;-61
2022/05/04 17:14:03;;;;;;;2.28;1.42;;;16.50;50.20;;;;;;5082266;28;20110;-61
2022/05/04 17:16:29;;;;;;;2.20;1.50;;;16.50;50.60;;;;;;5082198;28;20139;-61
2022/05/04 17:18:55;;;;;;;1.88;1.40;;;16.40;50.40;;;;;;5081106;28;20037;-61
2022/05/04 17:21:21;;;;;;;2.03;1.35;;;16.40;50.20;;;;;;5085227;28;20103;-61
2022/05/04 17:23:47;;;;;;;1.13;1.13;;;16.30;49.80;;;;;;5086434;28;20032;-61
2022/05/04 17:26:12;;;;;;;3.42;1.58;;;16.30;50.00;;;;;;5084918;28;20403;-61
2022/05/04 17:28:38;;;;;;;1.75;1.50;;;16.30;49.90;;;;;;5086328;28;20043;-61
2022/05/04 17:31:04;;;;;;;1.50;1.40;;;16.30;49.90;;;;;;5085098;28;20119;-61
2022/05/04 17:38:58;;;;;;;2.13;1.35;;;16.20;50.20;;;;;;5085790;28;20131;-61
2022/05/04 17:41:24;;;;;;;2.08;1.63;;;16.10;50.10;;;;;;5085702;28;20107;-61
2022/05/04 17:43:50;;;;;;;1.70;1.60;;;16.10;49.90;;;;;;5084810;28;20736;-61
2022/05/04 17:46:15;;;;;;;3.17;1.58;;;16.00;49.30;;;;;;5087748;28;20491;-61
2022/05/04 17:48:41;;;;;;;2.63;1.42;;;16.00;48.70;;;;;;5084418;28;20036;-61
2022/05/04 17:51:08;;;;;;;2.22;1.20;;;15.90;48.00;;;;;;5087307;28;20517;-61
2022/05/04 17:53:34;;;;;;;1.63;1.52;;;15.90;47.90;;;;;;5083759;28;20028;-61
2022/05/04 17:56:02;;;;;;;2.33;1.40;;;15.90;47.30;;;;;;5087072;28;20030;-60
2022/05/04 17:58:28;;;;;;;1.55;1.42;;;15.80;47.00;;;;;;5083034;28;20028;-61
2022/05/04 18:00:53;;;;;;;3.97;1.65;;;15.80;46.60;;;;;;5084959;28;20020;-61
2022/05/04 18:03:34;;;;;;;1.75;1.60;;;15.70;46.20;;;;;;5077910;28;20028;-61
2022/05/04 18:06:05;;;;;;;2.50;1.85;;;15.70;46.40;;;;;;5084736;28;20031;-61
2022/05/04 18:08:32;;;;;;;1.35;1.27;;;15.70;46.80;;;;;;5084420;28;20422;-61
2022/05/04 18:10:57;;;;;;;1.63;1.27;;;15.60;46.50;;;;;;5081598;28;20475;-61
2022/05/04 18:13:23;;;;;;;1.38;1.27;;;15.50;45.40;;;;;;5084873;28;20043;-61
2022/05/04 18:15:49;;;;;;;2.10;1.15;;;15.50;44.90;;;;;;5086777;28;20028;-61
2022/05/04 18:18:15;;;;;;;1.77;1.30;;;15.50;44.90;;;;;;5084084;28;20044;-61